Terminal Aerodrome Forecast
Issued by NWS

Home | Current Version | Previous Version | Text Only | Print | Product List | Glossary On
Versions: 1 2 3 4 5 6 7 8 9 10 11 12 13 14
000
FTUS41 KRNK 242348
TAFLWB
TAF
KLWB 242348Z 2500/2524 VRB03KT P6SM BKN060
     FM250700 04004KT 5SM BR OVC023
     FM250900 06005KT 4SM BR OVC017
     FM251600 08006KT P6SM OVC023=

USA.gov is the U.S. government's official web portal to all federal, state and local government web resources and services.